Silver Shadow — C6FN6 — position and weather

sailwx.info

Track history (hours):
 
Tides and Currents Weather Stations Pressure Air Temp Water Temp Dewpoint Dewpoint Depression Visibility Wind Speed Wind Dir Waves Ship Positions

Silver Shadow

Operator: V Ships Leisure SAM

Last reported at 2014-Sep-18 06:31 UTC. Time now 2014-Sep-18 21:47 UTC.
Position N 58°18' W 136°13'.

Length 186 m; draft 6.1 m.

Type: Passenger vessel. MMSI: 308628000.

Date/timePositionNaut miles runAvg speedWind from/ knotsBaromVisibWave heightAir tempDewpointWater temp
2014-Sep-18 06:31N 58°18' W 136°13'1717.5
2014-Sep-18 05:33N 58°18' W 135°41'  
2014-Sep-14 19:26N 51°09' W 128°18'1415.6
2014-Sep-14 18:34N 51°03' W 127°59'1414.1
2014-Sep-14 17:34N 50°55' W 127°40'1414.2
2014-Sep-14 16:33N 50°48' W 127°21'1414.2
2014-Sep-14 15:34N 50°43' W 127°00'1513.7
2014-Sep-14 14:29N 50°34' W 126°41'4613.4
2014-Sep-14 11:03N 50°21' W 125°32'712.3
2014-Sep-14 10:30N 50°17' W 125°24'1314.3
2014-Sep-14 09:33N 50°04' W 125°15'1312.9
2014-Sep-14 08:32N 49°54' W 125°02'1212.6
2014-Sep-14 07:33N 49°46' W 124°48'1312.7
2014-Sep-14 06:33N 49°36' W 124°35'1212.0
2014-Sep-14 05:33N 49°27' W 124°23'1312.8
2014-Sep-14 04:34N 49°23' W 124°05'1312.5
2014-Sep-14 03:33N 49°20' W 123°46'1312.6
2014-Sep-14 02:34N 49°19' W 123°27'1212.2
2014-Sep-14 01:34N 49°19' W 123°08'2 0.5
2014-Sep-13 21:31N 49°17' W 123°07'0 0.0
2014-Sep-13 20:31N 49°17' W 123°07'0 0.0
2014-Sep-13 19:31N 49°17' W 123°07'0 0.0
2014-Sep-13 18:31N 49°17' W 123°07'0 0.0
2014-Sep-13 17:31N 49°17' W 123°07'0 0.0
2014-Sep-13 16:31N 49°17' W 123°07'0 0.0
2014-Sep-13 15:31N 49°17' W 123°07'0 0.0
2014-Sep-13 14:31N 49°17' W 123°07'3 3.4
2014-Sep-13 13:33N 49°19' W 123°11'8 7.9
2014-Sep-13 12:34N 49°16' W 123°23'5 5.1
2014-Sep-13 11:34N 49°12' W 123°26'7 7.1
2014-Sep-13 10:33N 49°05' W 123°26'7 7.0
2014-Sep-13 09:34N 48°59' W 123°20'7 7.1
2014-Sep-13 08:33N 48°54' W 123°12'7 7.0
2014-Sep-13 07:33N 48°50' W 123°04'5 4.7
2014-Sep-13 06:33N 48°45' W 123°04'7 6.9
2014-Sep-13 05:30N 48°42' W 123°14'6 6.7
2014-Sep-13 04:33N 48°36' W 123°13'7 6.6
2014-Sep-13 03:34N 48°29' W 123°11'6 5.8
2014-Sep-13 02:33N 48°24' W 123°13'7 6.6
2014-Sep-13 01:34N 48°23' W 123°23'2 2.3
2014-Sep-13 00:31N 48°25' W 123°23'0 0.0
2014-Sep-12 23:31N 48°25' W 123°23'0 0.0
2014-Sep-12 22:31N 48°25' W 123°23'0 0.0
2014-Sep-12 21:31N 48°25' W 123°23'0 0.0
2014-Sep-12 20:31N 48°25' W 123°23'0 0.0
2014-Sep-12 19:31N 48°25' W 123°23'0 0.0
2014-Sep-12 18:28N 48°25' W 123°23'0 0.0
2014-Sep-12 17:31N 48°25' W 123°23'0 0.0
2014-Sep-12 16:31N 48°25' W 123°23'0 0.0
2014-Sep-12 15:31N 48°25' W 123°23'0 0.3
2014-Sep-12 14:33N 48°25' W 123°24'8 7.9
2014-Sep-12 13:33N 48°17' W 123°26'1111.3
2014-Sep-12 12:33N 48°14' W 123°42'1313.3
2014-Sep-12 11:33N 48°16' W 124°02'1414.0
2014-Sep-12 10:33N 48°22' W 124°21'1413.8
2014-Sep-12 09:34N 48°27' W 124°40'1313.2
2014-Sep-12 08:34N 48°29' W 124°59'1312.8
2014-Sep-12 07:34N 48°33' W 125°18'1313.4
2014-Sep-12 06:34N 48°40' W 125°34'1313.3
2014-Sep-12 05:34N 48°48' W 125°51'1413.7
2014-Sep-12 04:33N 48°56' W 126°08'1615.4
2014-Sep-12 03:32N 49°05' W 126°28'1615.9
2014-Sep-12 02:33N 49°14' W 126°47'34214.7
2014-Sep-11 03:24N 54°17' W 131°02'1214.5
2014-Sep-11 02:33N 54°15' W 130°41'1111.5
2014-Sep-11 01:33N 54°17' W 130°22'3 2.8
2014-Sep-11 00:32N 54°19' W 130°19'0 0.0
2014-Sep-10 23:32N 54°19' W 130°19'0 0.0
2014-Sep-10 22:32N 54°19' W 130°19'0 0.0
2014-Sep-10 21:32N 54°19' W 130°19'0 0.0
2014-Sep-10 20:32N 54°19' W 130°19'0 0.0
2014-Sep-10 19:33N 54°19' W 130°19'0 0.0
2014-Sep-10 18:33N 54°19' W 130°19'0 0.0
2014-Sep-10 17:33N 54°19' W 130°19'0 0.0
2014-Sep-10 16:33N 54°19' W 130°19'1 0.8
2014-Sep-10 15:33N 54°19' W 130°21'8 7.8
2014-Sep-10 14:33N 54°12' W 130°27'31410.4
2014-Sep-09 08:26N 58°17' W 136°20'1415.6
2014-Sep-09 07:34N 58°19' W 135°54'1616.1
2014-Sep-09 06:33N 58°14' W 135°25'  
Track history (hours):
 
Tides and Currents Weather Stations Pressure Air Temp Water Temp Dewpoint Dewpoint Depression Visibility Wind Speed Wind Dir Waves Ship Positions

Silver Shadow

Operator: V Ships Leisure SAM

Last reported at 2014-Sep-18 06:31 UTC. Time now 2014-Sep-18 21:47 UTC.
Position N 58°18' W 136°13'.

Length 186 m; draft 6.1 m.

Type: Passenger vessel. MMSI: 308628000.

Date/timePositionNaut miles runAvg speedWind from/ knotsBaromVisibWave heightAir tempDewpointWater temp
2014-Sep-18 06:31N 58°18' W 136°13'1717.5
2014-Sep-18 05:33N 58°18' W 135°41'  
2014-Sep-14 19:26N 51°09' W 128°18'1415.6
2014-Sep-14 18:34N 51°03' W 127°59'1414.1
2014-Sep-14 17:34N 50°55' W 127°40'1414.2
2014-Sep-14 16:33N 50°48' W 127°21'1414.2
2014-Sep-14 15:34N 50°43' W 127°00'1513.7
2014-Sep-14 14:29N 50°34' W 126°41'4613.4
2014-Sep-14 11:03N 50°21' W 125°32'712.3
2014-Sep-14 10:30N 50°17' W 125°24'1314.3
2014-Sep-14 09:33N 50°04' W 125°15'1312.9
2014-Sep-14 08:32N 49°54' W 125°02'1212.6
2014-Sep-14 07:33N 49°46' W 124°48'1312.7
2014-Sep-14 06:33N 49°36' W 124°35'1212.0
2014-Sep-14 05:33N 49°27' W 124°23'1312.8
2014-Sep-14 04:34N 49°23' W 124°05'1312.5
2014-Sep-14 03:33N 49°20' W 123°46'1312.6
2014-Sep-14 02:34N 49°19' W 123°27'1212.2
2014-Sep-14 01:34N 49°19' W 123°08'2 0.5
2014-Sep-13 21:31N 49°17' W 123°07'0 0.0
2014-Sep-13 20:31N 49°17' W 123°07'0 0.0
2014-Sep-13 19:31N 49°17' W 123°07'0 0.0
2014-Sep-13 18:31N 49°17' W 123°07'0 0.0
2014-Sep-13 17:31N 49°17' W 123°07'0 0.0
2014-Sep-13 16:31N 49°17' W 123°07'0 0.0
2014-Sep-13 15:31N 49°17' W 123°07'0 0.0
2014-Sep-13 14:31N 49°17' W 123°07'3 3.4
2014-Sep-13 13:33N 49°19' W 123°11'8 7.9
2014-Sep-13 12:34N 49°16' W 123°23'5 5.1
2014-Sep-13 11:34N 49°12' W 123°26'7 7.1
2014-Sep-13 10:33N 49°05' W 123°26'7 7.0
2014-Sep-13 09:34N 48°59' W 123°20'7 7.1
2014-Sep-13 08:33N 48°54' W 123°12'7 7.0
2014-Sep-13 07:33N 48°50' W 123°04'5 4.7
2014-Sep-13 06:33N 48°45' W 123°04'7 6.9
2014-Sep-13 05:30N 48°42' W 123°14'6 6.7
2014-Sep-13 04:33N 48°36' W 123°13'7 6.6
2014-Sep-13 03:34N 48°29' W 123°11'6 5.8
2014-Sep-13 02:33N 48°24' W 123°13'7 6.6
2014-Sep-13 01:34N 48°23' W 123°23'2 2.3
2014-Sep-13 00:31N 48°25' W 123°23'0 0.0
2014-Sep-12 23:31N 48°25' W 123°23'0 0.0
2014-Sep-12 22:31N 48°25' W 123°23'0 0.0
2014-Sep-12 21:31N 48°25' W 123°23'0 0.0
2014-Sep-12 20:31N 48°25' W 123°23'0 0.0
2014-Sep-12 19:31N 48°25' W 123°23'0 0.0
2014-Sep-12 18:28N 48°25' W 123°23'0 0.0
2014-Sep-12 17:31N 48°25' W 123°23'0 0.0
2014-Sep-12 16:31N 48°25' W 123°23'0 0.0
2014-Sep-12 15:31N 48°25' W 123°23'0 0.3
2014-Sep-12 14:33N 48°25' W 123°24'8 7.9
2014-Sep-12 13:33N 48°17' W 123°26'1111.3
2014-Sep-12 12:33N 48°14' W 123°42'1313.3
2014-Sep-12 11:33N 48°16' W 124°02'1414.0
2014-Sep-12 10:33N 48°22' W 124°21'1413.8
2014-Sep-12 09:34N 48°27' W 124°40'1313.2
2014-Sep-12 08:34N 48°29' W 124°59'1312.8
2014-Sep-12 07:34N 48°33' W 125°18'1313.4
2014-Sep-12 06:34N 48°40' W 125°34'1313.3
2014-Sep-12 05:34N 48°48' W 125°51'1413.7
2014-Sep-12 04:33N 48°56' W 126°08'1615.4
2014-Sep-12 03:32N 49°05' W 126°28'1615.9
2014-Sep-12 02:33N 49°14' W 126°47'34214.7
2014-Sep-11 03:24N 54°17' W 131°02'1214.5
2014-Sep-11 02:33N 54°15' W 130°41'1111.5
2014-Sep-11 01:33N 54°17' W 130°22'3 2.8
2014-Sep-11 00:32N 54°19' W 130°19'0 0.0
2014-Sep-10 23:32N 54°19' W 130°19'0 0.0
2014-Sep-10 22:32N 54°19' W 130°19'0 0.0
2014-Sep-10 21:32N 54°19' W 130°19'0 0.0
2014-Sep-10 20:32N 54°19' W 130°19'0 0.0
2014-Sep-10 19:33N 54°19' W 130°19'0 0.0
2014-Sep-10 18:33N 54°19' W 130°19'0 0.0
2014-Sep-10 17:33N 54°19' W 130°19'0 0.0
2014-Sep-10 16:33N 54°19' W 130°19'1 0.8
2014-Sep-10 15:33N 54°19' W 130°21'8 7.8
2014-Sep-10 14:33N 54°12' W 130°27'31410.4
2014-Sep-09 08:26N 58°17' W 136°20'1415.6
2014-Sep-09 07:34N 58°19' W 135°54'1616.1
2014-Sep-09 06:33N 58°14' W 135°25'  

Dump ship's entire track history